Time;durP1;ratioP1;P1;durP2;ratioP2;P2;SDS_P1;SDS_P2;PMS_P1;PMS_P2;Temp;Humidity;BMP_temperature;BMP_pressure;BME280_temperature;BME280_humidity;BME280_pressure;Samples;Min_cycle;Max_cycle;Signal;HPM_P1;HPM_P2
2024/03/25 00:01:45;;;;;;;14.48;1.55;;;4.60;99.90;;;;;;5006996;28;20036;-70
2024/03/25 00:04:11;;;;;;;14.95;1.92;;;4.60;99.90;;;;;;4988873;28;20043;-73
2024/03/25 00:06:37;;;;;;;25.13;2.17;;;4.50;99.90;;;;;;4995846;28;20048;-73
2024/03/25 00:09:03;;;;;;;19.88;2.83;;;4.50;99.90;;;;;;5005780;28;20036;-73
2024/03/25 00:11:29;;;;;;;18.80;2.47;;;4.50;99.90;;;;;;5014171;28;20675;-73
2024/03/25 00:13:55;;;;;;;18.13;1.80;;;4.60;99.90;;;;;;5009221;28;20116;-72
2024/03/25 00:16:20;;;;;;;12.93;1.98;;;4.70;99.90;;;;;;5008698;28;20038;-72
2024/03/25 00:18:46;;;;;;;23.08;3.88;;;4.80;99.90;;;;;;5008606;28;20045;-71
2024/03/25 00:21:12;;;;;;;17.55;2.22;;;4.80;99.90;;;;;;5011846;28;20053;-73
2024/03/25 00:23:37;;;;;;;17.02;2.42;;;4.90;99.90;;;;;;4993073;28;20060;-72
2024/03/25 00:26:03;;;;;;;11.95;2.00;;;4.90;99.90;;;;;;5005093;28;20420;-73
2024/03/25 00:28:28;;;;;;;9.35;1.70;;;4.90;99.90;;;;;;5011999;28;20552;-72
2024/03/25 00:30:54;;;;;;;10.35;1.55;;;4.80;99.90;;;;;;5006706;28;20499;-73
2024/03/25 00:33:20;;;;;;;12.18;1.73;;;4.80;99.90;;;;;;5013639;28;20037;-74
2024/03/25 00:35:45;;;;;;;9.35;1.42;;;4.70;99.90;;;;;;5002848;28;20087;-71
2024/03/25 00:38:11;;;;;;;20.35;2.83;;;4.70;99.90;;;;;;5011435;28;20119;-73
2024/03/25 00:40:37;;;;;;;17.17;3.38;;;4.60;99.90;;;;;;5006045;28;20042;-71
2024/03/25 00:43:03;;;;;;;16.73;2.88;;;4.60;99.90;;;;;;4996801;28;20034;-73
2024/03/25 00:45:30;;;;;;;12.55;2.00;;;4.50;99.90;;;;;;5016597;28;20527;-73
2024/03/25 00:47:59;;;;;;;16.27;2.95;;;4.50;99.90;;;;;;4995473;28;20034;-73
2024/03/25 00:50:26;;;;;;;15.40;1.90;;;4.50;99.90;;;;;;5014173;28;20037;-73
2024/03/25 00:52:52;;;;;;;16.85;2.75;;;4.50;99.90;;;;;;5010730;28;20038;-73
2024/03/25 00:55:17;;;;;;;14.05;2.17;;;4.40;99.90;;;;;;5014649;28;20053;-71
2024/03/25 00:57:43;;;;;;;17.27;2.28;;;4.40;99.90;;;;;;5013245;28;20052;-72
2024/03/25 01:00:09;;;;;;;23.30;4.55;;;4.30;99.90;;;;;;5013187;28;20053;-74
2024/03/25 01:02:35;;;;;;;14.55;2.45;;;4.30;99.90;;;;;;5016780;28;20528;-73
2024/03/25 01:05:00;;;;;;;21.05;1.98;;;4.30;99.90;;;;;;5013231;28;20034;-73
2024/03/25 01:07:26;;;;;;;9.52;1.17;;;4.40;99.90;;;;;;5017408;28;20120;-72
2024/03/25 01:09:51;;;;;;;14.20;1.85;;;4.30;99.90;;;;;;5014042;28;20453;-73
2024/03/25 01:12:17;;;;;;;16.10;2.25;;;4.30;99.90;;;;;;5015340;28;20077;-73
2024/03/25 01:14:43;;;;;;;16.60;2.53;;;4.30;99.90;;;;;;5018042;28;20498;-73
2024/03/25 01:17:08;;;;;;;13.02;1.88;;;4.30;99.90;;;;;;4994111;28;20131;-72
2024/03/25 01:19:34;;;;;;;16.13;2.55;;;4.30;99.90;;;;;;5016918;28;20057;-74
2024/03/25 01:21:59;;;;;;;22.17;2.90;;;4.30;99.90;;;;;;5012798;28;20120;-73
2024/03/25 01:24:25;;;;;;;9.35;1.85;;;4.20;99.90;;;;;;5018199;28;20029;-73
2024/03/25 01:26:51;;;;;;;19.75;2.78;;;4.20;99.90;;;;;;5013114;28;20036;-73
2024/03/25 01:29:18;;;;;;;16.48;2.55;;;4.20;99.90;;;;;;5016731;28;20053;-73
2024/03/25 01:31:44;;;;;;;12.05;2.63;;;4.20;99.90;;;;;;5014226;28;20044;-73
2024/03/25 01:34:10;;;;;;;12.88;1.80;;;4.20;99.90;;;;;;4994327;28;20034;-73
2024/03/25 01:36:36;;;;;;;22.60;3.30;;;4.10;99.90;;;;;;5016224;28;20043;-73
2024/03/25 01:39:02;;;;;;;18.75;2.67;;;4.10;99.90;;;;;;5014393;28;20033;-74
2024/03/25 01:41:29;;;;;;;15.90;2.80;;;4.10;99.90;;;;;;5000790;28;20076;-73
2024/03/25 01:43:54;;;;;;;17.02;2.80;;;4.10;99.90;;;;;;5012192;28;20124;-72
2024/03/25 01:46:21;;;;;;;15.05;3.28;;;4.10;99.90;;;;;;5017534;28;20127;-73
2024/03/25 01:48:48;;;;;;;12.77;2.05;;;4.10;99.90;;;;;;5015110;28;20110;-73
2024/03/25 01:51:16;;;;;;;15.75;1.63;;;4.10;99.90;;;;;;5015397;28;20042;-73
2024/03/25 01:53:43;;;;;;;8.15;1.45;;;4.10;99.90;;;;;;5010762;28;20372;-71
2024/03/25 01:56:09;;;;;;;17.85;3.10;;;4.10;99.90;;;;;;5000572;28;20109;-72
2024/03/25 01:58:36;;;;;;;13.15;3.08;;;4.20;99.90;;;;;;5017459;28;20502;-73
2024/03/25 02:01:03;;;;;;;18.88;1.98;;;4.20;99.90;;;;;;5005624;28;20097;-73
2024/03/25 02:03:30;;;;;;;14.90;2.17;;;4.30;99.90;;;;;;5019073;28;20094;-73
2024/03/25 02:06:03;;;;;;;16.65;2.40;;;4.40;99.90;;;;;;4996021;28;20441;-74
2024/03/25 02:08:31;;;;;;;15.40;3.05;;;4.50;99.90;;;;;;5013737;28;20376;-75
2024/03/25 02:10:57;;;;;;;12.45;2.50;;;4.60;99.90;;;;;;5015146;28;20084;-73
2024/03/25 02:13:23;;;;;;;13.85;2.60;;;4.70;99.90;;;;;;5019435;28;20032;-72
2024/03/25 02:15:51;;;;;;;14.05;1.73;;;4.70;99.90;;;;;;5012325;28;20053;-73
2024/03/25 02:18:19;;;;;;;17.23;2.97;;;4.80;99.90;;;;;;5018036;28;20116;-73
2024/03/25 02:20:46;;;;;;;12.85;1.70;;;4.90;99.90;;;;;;5014104;28;20033;-71
2024/03/25 02:23:12;;;;;;;23.25;2.25;;;4.90;99.90;;;;;;5016238;28;20049;-73
2024/03/25 02:25:40;;;;;;;15.23;1.88;;;4.90;99.90;;;;;;5013827;28;20113;-71
2024/03/25 02:28:05;;;;;;;20.65;3.20;;;5.00;99.90;;;;;;5007083;28;20049;-72
2024/03/25 02:30:31;;;;;;;14.60;3.35;;;5.00;99.90;;;;;;5008047;28;20030;-73
2024/03/25 02:32:57;;;;;;;15.10;2.42;;;5.00;99.90;;;;;;4991592;28;20041;-72
2024/03/25 02:35:24;;;;;;;17.13;2.78;;;5.10;99.90;;;;;;4985175;28;20049;-73
2024/03/25 02:37:54;;;;;;;14.93;2.00;;;5.10;99.90;;;;;;5008032;28;20540;-70
2024/03/25 02:40:22;;;;;;;16.42;2.40;;;5.10;99.90;;;;;;4983402;28;20826;-73
2024/03/25 02:42:48;;;;;;;19.73;2.90;;;5.10;99.90;;;;;;5004281;28;20047;-72
2024/03/25 02:45:14;;;;;;;11.57;3.58;;;5.10;99.90;;;;;;5002353;28;20582;-74
2024/03/25 02:47:39;;;;;;;12.90;1.98;;;5.10;99.90;;;;;;5005056;28;20046;-75
2024/03/25 02:50:05;;;;;;;10.10;1.90;;;5.10;99.90;;;;;;4977454;28;20038;-70
2024/03/25 02:52:31;;;;;;;11.40;1.58;;;5.10;99.90;;;;;;4998416;28;20125;-73
2024/03/25 02:54:57;;;;;;;13.15;2.50;;;5.10;99.90;;;;;;4997241;28;20506;-72
2024/03/25 02:57:22;;;;;;;13.07;2.20;;;5.10;99.90;;;;;;5002773;28;20463;-73
2024/03/25 02:59:48;;;;;;;14.15;2.97;;;5.00;99.90;;;;;;5006031;28;20125;-70
2024/03/25 03:02:14;;;;;;;12.07;1.92;;;5.00;99.90;;;;;;5002605;28;20038;-73
2024/03/25 03:04:39;;;;;;;5.95;1.42;;;4.90;99.90;;;;;;4992530;28;20071;-73
2024/03/25 03:07:05;;;;;;;11.63;1.52;;;4.80;99.90;;;;;;4987707;28;20088;-74
2024/03/25 03:09:31;;;;;;;13.77;2.28;;;4.70;99.90;;;;;;5000247;28;20027;-73
2024/03/25 03:11:56;;;;;;;14.88;1.30;;;4.60;99.90;;;;;;5002861;28;20061;-71
2024/03/25 03:14:22;;;;;;;14.52;1.67;;;4.50;99.90;;;;;;5004345;28;20481;-71
2024/03/25 03:16:49;;;;;;;12.63;2.13;;;4.40;99.90;;;;;;4998598;28;20029;-72
2024/03/25 03:19:15;;;;;;;18.23;2.72;;;4.30;99.90;;;;;;5003561;28;20088;-72
2024/03/25 03:21:40;;;;;;;15.77;2.05;;;4.30;99.90;;;;;;4984979;28;20068;-72
2024/03/25 03:24:06;;;;;;;9.30;2.42;;;4.20;99.90;;;;;;5006514;28;20418;-72
2024/03/25 03:26:32;;;;;;;8.98;1.48;;;4.20;99.90;;;;;;5007937;28;20045;-73
2024/03/25 03:28:58;;;;;;;11.18;1.38;;;4.20;99.90;;;;;;5008589;28;20083;-72
2024/03/25 03:31:23;;;;;;;9.25;1.40;;;4.10;99.90;;;;;;5005563;28;20038;-71
2024/03/25 03:33:50;;;;;;;12.15;1.77;;;4.00;99.90;;;;;;5007076;28;20538;-72
2024/03/25 03:36:17;;;;;;;11.35;1.50;;;4.00;99.90;;;;;;5007547;28;20042;-73
2024/03/25 03:38:43;;;;;;;25.55;4.68;;;3.90;99.90;;;;;;4990399;28;20041;-73
2024/03/25 03:41:08;;;;;;;14.82;1.20;;;3.90;99.90;;;;;;5001579;28;20033;-72
2024/03/25 03:43:34;;;;;;;12.00;1.42;;;3.90;99.90;;;;;;5008220;28;20030;-72
2024/03/25 03:46:00;;;;;;;12.80;1.75;;;3.80;99.90;;;;;;5008465;28;20499;-73
2024/03/25 03:48:26;;;;;;;13.40;2.13;;;3.80;99.90;;;;;;5008792;28;20096;-72
2024/03/25 03:50:51;;;;;;;7.55;1.50;;;3.80;99.90;;;;;;5007626;28;20041;-74
2024/03/25 03:53:17;;;;;;;15.95;1.58;;;3.70;99.90;;;;;;5004135;28;20499;-72
2024/03/25 03:55:42;;;;;;;10.38;2.53;;;3.70;99.90;;;;;;4973310;28;1230276;-73
2024/03/25 03:58:08;;;;;;;11.27;1.60;;;3.70;99.90;;;;;;5011530;28;20030;-72
2024/03/25 04:00:35;;;;;;;10.80;1.85;;;3.70;99.90;;;;;;5009946;28;20029;-72
2024/03/25 04:03:02;;;;;;;9.98;1.40;;;3.60;99.90;;;;;;4994957;28;20045;-74
2024/03/25 04:05:31;;;;;;;8.40;1.60;;;3.60;99.90;;;;;;5011382;28;20049;-73
2024/03/25 04:07:56;;;;;;;10.38;1.50;;;3.60;99.90;;;;;;5011068;28;20062;-71
2024/03/25 04:10:23;;;;;;;22.65;1.77;;;3.60;99.90;;;;;;5006153;28;20065;-73
2024/03/25 04:12:48;;;;;;;10.63;2.65;;;3.50;99.90;;;;;;5012182;28;20068;-73
2024/03/25 04:15:17;;;;;;;17.65;2.10;;;3.50;99.90;;;;;;5007936;28;20045;-73
2024/03/25 04:17:44;;;;;;;9.35;1.48;;;3.50;99.90;;;;;;5009463;28;20037;-74
2024/03/25 04:20:11;;;;;;;14.90;1.35;;;3.50;99.90;;;;;;5004561;28;20384;-74
2024/03/25 04:22:37;;;;;;;10.18;1.75;;;3.40;99.90;;;;;;5009103;28;20712;-72
2024/03/25 04:25:03;;;;;;;11.65;2.28;;;3.40;99.90;;;;;;5009710;28;20041;-73
2024/03/25 04:27:28;;;;;;;15.48;1.52;;;3.40;99.90;;;;;;5011348;28;20038;-73
2024/03/25 04:29:54;;;;;;;6.45;1.55;;;3.40;99.90;;;;;;5012893;28;20036;-72
2024/03/25 04:32:19;;;;;;;8.75;1.42;;;3.30;99.90;;;;;;5002385;28;20034;-73
2024/03/25 04:34:45;;;;;;;7.75;1.65;;;3.30;99.90;;;;;;5013760;28;20022;-70
2024/03/25 04:37:11;;;;;;;11.23;1.08;;;3.30;99.90;;;;;;5005470;28;20050;-73
2024/03/25 04:39:37;;;;;;;7.13;1.48;;;3.30;99.90;;;;;;5016623;28;20037;-73
2024/03/25 04:42:03;;;;;;;13.85;1.50;;;3.30;99.90;;;;;;5009591;28;20463;-73
2024/03/25 04:44:28;;;;;;;14.98;3.22;;;3.20;99.90;;;;;;5012986;28;20035;-74
2024/03/25 04:46:54;;;;;;;11.45;2.22;;;3.20;99.90;;;;;;5012314;28;20033;-72
2024/03/25 04:49:20;;;;;;;9.43;1.77;;;3.20;99.90;;;;;;4992697;28;20575;-72
2024/03/25 04:51:45;;;;;;;14.98;2.35;;;3.20;99.90;;;;;;5014060;28;20083;-69
2024/03/25 04:54:11;;;;;;;10.00;1.92;;;3.10;99.90;;;;;;4994251;28;21673;-74
2024/03/25 04:56:36;;;;;;;18.80;3.10;;;3.10;99.90;;;;;;5006136;28;20040;-72
2024/03/25 04:59:02;;;;;;;12.80;2.10;;;3.10;99.90;;;;;;5012702;28;20042;-73
2024/03/25 05:01:28;;;;;;;16.25;2.17;;;3.10;99.90;;;;;;5014422;28;20124;-72
2024/03/25 05:03:54;;;;;;;11.90;1.90;;;3.00;99.90;;;;;;5009455;28;20033;-72
2024/03/25 05:06:20;;;;;;;15.50;2.50;;;3.00;99.90;;;;;;5011608;28;20041;-73
2024/03/25 05:08:45;;;;;;;14.25;2.38;;;3.00;99.90;;;;;;4991441;28;20030;-71
2024/03/25 05:11:11;;;;;;;20.20;3.13;;;3.00;99.90;;;;;;5012384;28;20033;-73
2024/03/25 05:13:36;;;;;;;12.65;2.85;;;3.00;99.90;;;;;;5016943;28;20171;-74
2024/03/25 05:16:02;;;;;;;13.35;3.15;;;3.00;99.90;;;;;;5014356;28;20083;-73
2024/03/25 05:18:27;;;;;;;14.25;3.45;;;3.00;99.90;;;;;;5015211;28;20033;-73
2024/03/25 05:20:53;;;;;;;11.68;3.42;;;3.00;99.90;;;;;;5015885;28;20503;-72
2024/03/25 05:23:19;;;;;;;22.65;4.10;;;3.00;99.90;;;;;;5013795;28;20034;-73
2024/03/25 05:25:44;;;;;;;17.27;2.88;;;3.00;99.90;;;;;;5013362;28;20018;-74
2024/03/25 05:28:10;;;;;;;12.43;2.60;;;3.00;99.90;;;;;;5011073;28;20037;-72
2024/03/25 05:30:35;;;;;;;13.90;2.80;;;3.00;99.90;;;;;;5013190;28;20494;-73
2024/03/25 05:33:01;;;;;;;9.02;2.15;;;3.00;99.90;;;;;;5010479;28;20399;-73
2024/03/25 05:35:27;;;;;;;14.82;2.53;;;3.00;99.90;;;;;;5014964;28;20041;-74
2024/03/25 05:37:53;;;;;;;13.73;2.88;;;3.00;99.90;;;;;;5018026;28;20045;-73
2024/03/25 05:40:19;;;;;;;10.75;2.72;;;3.00;99.90;;;;;;5001252;28;20038;-72
2024/03/25 05:42:45;;;;;;;12.18;3.65;;;3.00;99.90;;;;;;5013951;28;20036;-72
2024/03/25 05:45:10;;;;;;;9.68;2.30;;;3.00;99.90;;;;;;5014202;28;20128;-73
2024/03/25 05:47:36;;;;;;;19.02;3.58;;;3.00;99.90;;;;;;5021500;28;20076;-72
2024/03/25 05:50:05;;;;;;;6.85;2.00;;;3.00;99.90;;;;;;4998198;28;20422;-72
2024/03/25 05:52:31;;;;;;;11.15;2.63;;;3.00;99.90;;;;;;5002157;28;20042;-72
2024/03/25 05:54:56;;;;;;;11.82;3.50;;;3.10;99.90;;;;;;5005774;28;20057;-73
2024/03/25 05:57:22;;;;;;;17.88;3.35;;;3.10;99.90;;;;;;5000946;28;20136;-71
2024/03/25 05:59:48;;;;;;;16.42;3.00;;;3.10;99.90;;;;;;5005762;28;20046;-70
2024/03/25 06:02:14;;;;;;;12.65;3.00;;;3.20;99.90;;;;;;5003860;28;20577;-71
2024/03/25 06:04:39;;;;;;;18.38;4.25;;;3.20;99.90;;;;;;5005530;28;20038;-72
2024/03/25 06:07:05;;;;;;;13.82;2.97;;;3.30;99.90;;;;;;5004439;28;20447;-74
2024/03/25 06:09:30;;;;;;;18.13;3.53;;;3.40;99.90;;;;;;5001650;28;20643;-72
2024/03/25 06:11:56;;;;;;;19.10;2.78;;;3.40;99.90;;;;;;5004183;28;20045;-72
2024/03/25 06:14:22;;;;;;;10.60;3.05;;;3.50;99.90;;;;;;5006042;28;20045;-70
2024/03/25 06:16:47;;;;;;;10.85;3.13;;;3.50;99.90;;;;;;5004147;28;20076;-71
2024/03/25 06:19:13;;;;;;;10.88;2.22;;;3.60;99.90;;;;;;5003448;28;20048;-73
2024/03/25 06:21:39;;;;;;;14.55;2.13;;;3.60;99.90;;;;;;5006105;28;20041;-73
2024/03/25 06:24:04;;;;;;;9.00;2.08;;;3.70;99.90;;;;;;5002550;28;20030;-71
2024/03/25 06:26:30;;;;;;;14.13;2.40;;;3.70;99.90;;;;;;5006868;28;20132;-73
2024/03/25 06:28:55;;;;;;;11.77;2.03;;;3.80;99.90;;;;;;4999186;28;20065;-72
2024/03/25 06:34:14;;;;;;;15.43;2.83;;;3.90;99.90;;;;;;5002903;28;20050;-72
2024/03/25 06:36:41;;;;;;;7.82;2.35;;;3.90;99.90;;;;;;5001079;28;20034;-73
2024/03/25 06:39:06;;;;;;;10.70;2.45;;;4.00;99.90;;;;;;5002598;28;20068;-72
2024/03/25 06:41:32;;;;;;;20.50;2.13;;;4.00;99.90;;;;;;5001741;28;20029;-72
2024/03/25 06:43:58;;;;;;;12.35;2.30;;;4.10;99.90;;;;;;5005433;28;20065;-73
2024/03/25 06:46:23;;;;;;;17.58;2.55;;;4.20;99.90;;;;;;5002631;28;20034;-71
2024/03/25 06:48:50;;;;;;;11.95;2.50;;;4.20;99.90;;;;;;5002218;28;20047;-72
2024/03/25 06:51:15;;;;;;;15.93;2.72;;;4.40;99.90;;;;;;4982378;28;20407;-72
2024/03/25 06:53:41;;;;;;;15.60;3.45;;;4.50;99.90;;;;;;5004009;28;20042;-74
2024/03/25 06:56:06;;;;;;;14.85;2.75;;;4.70;99.90;;;;;;4998639;28;20487;-74
2024/03/25 06:58:32;;;;;;;16.40;3.03;;;4.80;99.90;;;;;;4989843;28;20038;-73
2024/03/25 07:01:05;;;;;;;15.63;3.17;;;5.00;99.90;;;;;;5000900;28;20048;-73
2024/03/25 07:03:31;;;;;;;21.10;2.63;;;5.10;99.90;;;;;;4999842;28;20033;-74
2024/03/25 07:05:59;;;;;;;14.65;2.08;;;5.30;99.90;;;;;;5006118;28;20050;-73
2024/03/25 07:08:24;;;;;;;25.63;2.65;;;5.40;99.90;;;;;;5007210;28;20030;-73
2024/03/25 07:10:50;;;;;;;21.20;4.05;;;5.50;99.90;;;;;;5003435;28;20072;-72
2024/03/25 07:13:16;;;;;;;23.75;2.53;;;5.70;99.90;;;;;;5000736;28;20046;-73
2024/03/25 07:15:43;;;;;;;21.88;3.13;;;5.80;99.90;;;;;;5004043;28;20081;-73
2024/03/25 07:18:10;;;;;;;19.17;3.03;;;5.90;99.90;;;;;;4990373;28;20057;-72
2024/03/25 07:20:36;;;;;;;9.63;2.97;;;6.10;99.90;;;;;;5004177;28;20495;-73
2024/03/25 07:23:03;;;;;;;17.35;2.55;;;6.20;99.90;;;;;;4999568;28;20068;-73
2024/03/25 07:25:29;;;;;;;27.10;3.80;;;6.40;99.90;;;;;;5002557;28;20022;-75
2024/03/25 07:27:55;;;;;;;16.70;2.45;;;6.40;99.90;;;;;;5001277;28;20117;-72
2024/03/25 07:30:27;;;;;;;15.40;2.42;;;6.50;99.90;;;;;;5006787;28;20729;-73
2024/03/25 07:32:54;;;;;;;11.88;2.45;;;6.70;99.90;;;;;;5004041;28;20054;-73
2024/03/25 07:35:19;;;;;;;18.98;3.60;;;6.80;99.90;;;;;;5005649;28;20041;-73
2024/03/25 07:37:45;;;;;;;14.32;2.67;;;6.90;99.90;;;;;;4996296;28;20035;-73
2024/03/25 07:40:14;;;;;;;16.00;3.50;;;7.00;99.90;;;;;;5006664;28;20128;-69
2024/03/25 07:42:39;;;;;;;14.90;2.47;;;7.10;99.90;;;;;;4985196;28;20049;-73
2024/03/25 07:45:06;;;;;;;9.15;2.10;;;7.30;99.90;;;;;;4997825;28;20042;-71
2024/03/25 07:47:32;;;;;;;9.05;2.33;;;7.40;99.90;;;;;;5006516;28;20054;-71
2024/03/25 07:49:59;;;;;;;24.15;3.97;;;7.50;99.90;;;;;;5007562;28;20113;-72
2024/03/25 07:52:27;;;;;;;27.55;4.13;;;7.70;99.90;;;;;;4983285;28;20509;-72
2024/03/25 07:54:54;;;;;;;15.98;3.10;;;7.70;99.90;;;;;;5003776;28;20769;-73
2024/03/25 07:57:19;;;;;;;10.68;2.10;;;7.90;99.90;;;;;;5009956;28;20069;-73
2024/03/25 07:59:46;;;;;;;10.93;1.95;;;8.00;99.90;;;;;;4998892;28;20527;-72
2024/03/25 08:02:11;;;;;;;8.75;1.45;;;8.20;99.90;;;;;;4997728;28;20038;-70
2024/03/25 08:04:37;;;;;;;15.40;2.40;;;8.30;99.90;;;;;;5006152;28;20038;-72
2024/03/25 08:07:02;;;;;;;14.68;2.50;;;8.40;99.90;;;;;;4983283;28;20499;-73
2024/03/25 08:09:29;;;;;;;15.95;3.33;;;8.40;99.90;;;;;;4995843;28;20052;-72
2024/03/25 08:11:54;;;;;;;17.05;2.33;;;8.50;99.90;;;;;;5004004;28;20148;-72
2024/03/25 08:14:20;;;;;;;12.27;2.30;;;8.60;99.90;;;;;;5003085;28;20113;-73
2024/03/25 08:16:46;;;;;;;10.77;2.20;;;8.70;99.90;;;;;;4998977;28;20045;-70
2024/03/25 08:19:11;;;;;;;12.68;1.85;;;8.80;99.90;;;;;;4997669;28;20038;-72
2024/03/25 08:21:37;;;;;;;17.48;2.92;;;8.80;99.90;;;;;;5000793;28;20142;-73
2024/03/25 08:24:03;;;;;;;19.48;3.92;;;8.90;99.90;;;;;;4991092;28;20408;-73
2024/03/25 08:26:28;;;;;;;17.70;2.38;;;9.00;99.90;;;;;;5002902;28;20042;-72
2024/03/25 08:28:54;;;;;;;10.82;2.38;;;9.00;99.90;;;;;;5002433;28;20047;-73
2024/03/25 08:31:19;;;;;;;14.48;2.88;;;9.00;99.90;;;;;;5001067;28;20045;-73
2024/03/25 08:33:45;;;;;;;10.40;2.33;;;9.10;99.90;;;;;;5001957;28;20538;-72
2024/03/25 08:36:11;;;;;;;13.25;2.50;;;9.10;99.90;;;;;;5001634;28;20582;-72
2024/03/25 08:38:36;;;;;;;11.07;1.63;;;9.10;99.90;;;;;;5000961;28;20045;-73
2024/03/25 08:41:03;;;;;;;14.68;2.67;;;9.20;99.90;;;;;;5000869;28;20022;-72
2024/03/25 08:43:29;;;;;;;14.05;2.63;;;9.40;99.90;;;;;;5003688;28;20026;-71
2024/03/25 08:45:55;;;;;;;9.93;1.38;;;9.60;99.90;;;;;;5006203;28;20502;-73
2024/03/25 08:48:20;;;;;;;8.18;2.28;;;9.60;99.90;;;;;;5003578;28;20391;-72
2024/03/25 08:50:46;;;;;;;12.52;2.30;;;9.80;99.90;;;;;;5003841;28;20030;-69
2024/03/25 08:53:11;;;;;;;13.00;2.17;;;9.80;99.90;;;;;;5003753;28;20034;-72
2024/03/25 08:55:37;;;;;;;7.45;1.30;;;9.80;99.90;;;;;;5003570;28;20041;-72
2024/03/25 08:58:03;;;;;;;16.35;2.90;;;9.90;99.90;;;;;;5003690;28;20495;-72
2024/03/25 09:00:28;;;;;;;11.60;1.88;;;10.00;99.90;;;;;;5001975;28;20053;-73
2024/03/25 09:02:54;;;;;;;11.57;1.90;;;9.90;99.90;;;;;;4985935;28;20450;-72
2024/03/25 09:05:21;;;;;;;12.27;1.70;;;10.00;99.90;;;;;;5002320;28;20108;-70
2024/03/25 09:07:51;;;;;;;10.80;2.22;;;10.10;99.90;;;;;;5000900;28;20534;-69
2024/03/25 09:13:04;;;;;;;13.68;1.90;;;10.30;99.90;;;;;;5005660;28;20048;-72
2024/03/25 09:15:30;;;;;;;15.07;2.88;;;10.40;99.90;;;;;;5006130;28;20470;-73
2024/03/25 09:17:55;;;;;;;8.55;2.10;;;10.50;99.90;;;;;;4999871;28;20339;-73
2024/03/25 09:20:21;;;;;;;12.30;2.53;;;10.60;99.90;;;;;;5005389;28;21819;-74
2024/03/25 09:22:48;;;;;;;11.80;2.22;;;10.60;99.90;;;;;;4999269;28;20044;-70
2024/03/25 09:25:17;;;;;;;12.07;2.42;;;10.60;99.90;;;;;;5001031;28;20137;-73
2024/03/25 09:27:46;;;;;;;24.35;3.72;;;10.60;99.90;;;;;;5002410;28;20038;-73
2024/03/25 09:30:13;;;;;;;14.23;3.17;;;10.50;99.90;;;;;;5000438;28;20052;-73
2024/03/25 09:32:39;;;;;;;9.32;2.35;;;10.60;99.90;;;;;;5001960;28;20054;-73
2024/03/25 09:35:05;;;;;;;6.07;1.83;;;10.60;99.90;;;;;;5003040;28;20439;-69
2024/03/25 09:37:31;;;;;;;11.07;2.65;;;10.70;99.90;;;;;;5002108;28;20109;-72
2024/03/25 09:39:58;;;;;;;9.80;2.35;;;10.70;99.90;;;;;;4998242;28;20026;-72
2024/03/25 09:42:28;;;;;;;13.45;2.88;;;10.70;99.90;;;;;;5004694;28;20112;-73
2024/03/25 09:44:56;;;;;;;5.60;1.60;;;10.80;99.90;;;;;;5006108;28;20407;-73
2024/03/25 09:47:22;;;;;;;9.25;2.38;;;10.90;99.90;;;;;;5006123;28;20034;-74
2024/03/25 09:49:48;;;;;;;16.23;2.58;;;10.90;99.90;;;;;;5002150;28;20037;-71
2024/03/25 09:52:15;;;;;;;16.40;3.20;;;11.00;99.90;;;;;;5001680;28;20103;-72
2024/03/25 09:54:41;;;;;;;10.65;2.40;;;11.10;99.90;;;;;;5005468;28;20068;-69
2024/03/25 09:57:08;;;;;;;8.20;2.50;;;11.30;99.90;;;;;;5006675;28;20042;-73
2024/03/25 09:59:34;;;;;;;11.82;1.98;;;11.40;99.90;;;;;;5006867;28;20034;-73
2024/03/25 10:02:02;;;;;;;12.48;2.55;;;11.60;99.90;;;;;;5000002;28;20040;-73
2024/03/25 10:04:27;;;;;;;5.63;1.80;;;11.70;99.90;;;;;;4995333;28;20093;-73
2024/03/25 10:06:53;;;;;;;8.75;2.80;;;11.60;99.90;;;;;;4999869;28;20045;-74
2024/03/25 10:09:19;;;;;;;10.20;2.28;;;11.70;99.90;;;;;;5002463;28;20033;-73
2024/03/25 10:11:48;;;;;;;6.10;1.85;;;11.90;99.90;;;;;;5001206;28;20570;-72
2024/03/25 10:14:15;;;;;;;14.88;3.78;;;11.90;99.90;;;;;;5002916;28;20045;-76
2024/03/25 10:16:41;;;;;;;16.10;3.67;;;12.10;99.90;;;;;;5006092;28;20566;-72
2024/03/25 10:19:07;;;;;;;8.50;2.80;;;12.30;99.90;;;;;;5002459;28;20120;-72
2024/03/25 10:21:33;;;;;;;11.35;3.50;;;12.30;99.90;;;;;;4997569;28;20404;-74
2024/03/25 10:23:59;;;;;;;11.10;2.40;;;12.40;99.90;;;;;;4996302;28;20065;-73
2024/03/25 10:26:31;;;;;;;6.82;2.38;;;12.40;99.90;;;;;;5002249;28;20140;-73
2024/03/25 10:29:04;;;;;;;9.75;2.90;;;12.40;99.90;;;;;;4998000;28;20046;-72
2024/03/25 10:31:30;;;;;;;8.48;2.20;;;12.40;99.90;;;;;;5003265;28;20105;-71
2024/03/25 10:33:56;;;;;;;11.50;2.28;;;12.30;99.90;;;;;;5000503;28;20038;-73
2024/03/25 10:36:24;;;;;;;11.82;2.33;;;12.20;99.90;;;;;;5007835;28;20044;-74
2024/03/25 10:39:00;;;;;;;11.38;2.60;;;12.10;99.90;;;;;;4997940;28;20037;-71
2024/03/25 10:41:28;;;;;;;5.60;2.30;;;12.10;99.90;;;;;;5002886;28;20038;-72
2024/03/25 10:43:54;;;;;;;14.60;2.40;;;12.30;99.90;;;;;;5002692;28;20044;-74
2024/03/25 10:46:22;;;;;;;10.15;2.85;;;12.20;99.90;;;;;;4983144;28;20100;-70
2024/03/25 10:48:56;;;;;;;7.57;2.55;;;12.20;99.90;;;;;;5001189;28;20048;-72
2024/03/25 10:51:24;;;;;;;10.63;2.65;;;12.30;99.90;;;;;;4984674;28;20694;-73
2024/03/25 10:53:53;;;;;;;7.15;2.30;;;12.30;99.90;;;;;;5001446;28;20038;-71
2024/03/25 10:56:21;;;;;;;5.55;2.22;;;12.40;99.90;;;;;;5002854;28;20034;-73
2024/03/25 10:58:48;;;;;;;9.02;3.08;;;12.40;99.90;;;;;;4986960;28;20057;-71
2024/03/25 11:01:17;;;;;;;8.50;2.28;;;12.50;99.90;;;;;;4987196;28;20680;-71
2024/03/25 11:03:44;;;;;;;7.93;2.40;;;12.60;99.90;;;;;;5005026;28;20034;-71
2024/03/25 11:06:11;;;;;;;6.68;2.10;;;12.60;99.90;;;;;;5002215;28;20040;-77
2024/03/25 11:08:36;;;;;;;10.85;3.17;;;12.60;99.90;;;;;;5004855;28;20041;-73
2024/03/25 11:11:02;;;;;;;10.05;3.03;;;12.60;99.90;;;;;;5002856;28;20050;-72
2024/03/25 11:13:29;;;;;;;8.43;2.10;;;12.50;99.90;;;;;;5001288;28;20026;-73
2024/03/25 11:15:55;;;;;;;5.43;2.05;;;12.40;99.90;;;;;;5003629;28;20045;-73
2024/03/25 11:18:27;;;;;;;4.97;2.17;;;12.30;99.90;;;;;;5005228;28;20060;-73
2024/03/25 11:21:07;;;;;;;6.63;1.92;;;12.30;99.90;;;;;;4999033;28;20033;-72
2024/03/25 11:23:42;;;;;;;7.25;1.90;;;12.30;99.90;;;;;;5000059;28;20045;-73
2024/03/25 11:26:22;;;;;;;4.68;2.00;;;12.10;99.90;;;;;;5002303;28;20042;-72
2024/03/25 11:28:49;;;;;;;9.30;2.40;;;12.10;99.90;;;;;;5002983;28;20041;-71
2024/03/25 11:31:15;;;;;;;10.20;1.80;;;12.10;99.90;;;;;;5004370;28;20039;-73
2024/03/25 11:33:41;;;;;;;7.85;1.95;;;12.10;99.90;;;;;;5002987;28;20030;-73
2024/03/25 11:36:07;;;;;;;8.02;2.10;;;12.20;99.90;;;;;;5003662;28;20121;-72
2024/03/25 11:38:33;;;;;;;5.63;2.25;;;12.20;99.90;;;;;;5003679;28;20465;-73
2024/03/25 11:41:00;;;;;;;6.28;2.10;;;12.30;99.90;;;;;;5001276;28;20125;-73
2024/03/25 11:43:25;;;;;;;4.40;1.33;;;12.30;99.90;;;;;;4993947;28;20496;-72
2024/03/25 11:45:53;;;;;;;6.90;1.45;;;12.30;99.90;;;;;;5002311;28;20038;-72
2024/03/25 11:48:19;;;;;;;8.73;1.65;;;12.30;99.90;;;;;;5001904;28;20030;-72
2024/03/25 11:50:47;;;;;;;5.93;1.33;;;12.30;99.90;;;;;;4986830;28;20045;-73
2024/03/25 11:53:14;;;;;;;6.38;1.60;;;12.30;99.90;;;;;;5008344;28;20053;-72
2024/03/25 11:55:49;;;;;;;8.75;2.17;;;12.20;99.90;;;;;;4986235;28;20041;-71
2024/03/25 11:58:15;;;;;;;5.68;2.78;;;12.30;99.90;;;;;;5002373;28;20403;-73
2024/03/25 12:00:53;;;;;;;9.30;2.65;;;12.30;99.90;;;;;;5006632;28;20139;-73
2024/03/25 12:03:19;;;;;;;7.03;2.60;;;12.30;99.90;;;;;;5001077;28;20037;-73
2024/03/25 12:05:44;;;;;;;7.03;2.28;;;12.20;99.90;;;;;;4996118;28;20443;-73
2024/03/25 12:08:11;;;;;;;4.60;2.25;;;12.10;99.90;;;;;;5002602;28;20114;-73
2024/03/25 12:13:23;;;;;;;9.55;2.35;;;12.10;99.90;;;;;;4976865;28;20051;-73
2024/03/25 12:15:49;;;;;;;9.77;2.00;;;12.10;99.90;;;;;;5000987;28;20069;-70
2024/03/25 12:18:15;;;;;;;8.50;2.30;;;12.20;99.90;;;;;;5003804;28;20503;-73
2024/03/25 12:20:41;;;;;;;6.53;1.73;;;12.40;99.90;;;;;;4999155;28;20048;-73
2024/03/25 12:23:07;;;;;;;5.68;2.08;;;12.40;99.90;;;;;;4994713;28;20042;-74
2024/03/25 12:25:33;;;;;;;5.55;1.77;;;12.40;99.90;;;;;;4999738;28;20034;-73
2024/03/25 12:27:59;;;;;;;6.75;2.53;;;12.40;99.90;;;;;;4997015;28;20049;-73
2024/03/25 12:30:25;;;;;;;5.05;2.03;;;12.40;99.90;;;;;;4982088;28;20030;-74
2024/03/25 12:32:51;;;;;;;7.80;1.60;;;12.50;99.90;;;;;;4998573;28;20038;-72
2024/03/25 12:35:18;;;;;;;5.03;1.52;;;12.40;99.90;;;;;;5003316;28;20040;-73
2024/03/25 12:37:45;;;;;;;5.28;1.35;;;12.30;99.90;;;;;;4995749;28;20034;-73
2024/03/25 12:40:14;;;;;;;8.32;1.35;;;12.10;99.90;;;;;;4999469;28;20099;-71
2024/03/25 12:42:40;;;;;;;7.22;2.00;;;12.10;99.90;;;;;;4999735;28;20072;-73
2024/03/25 12:45:06;;;;;;;4.18;2.05;;;12.30;99.90;;;;;;5004337;28;20034;-71
2024/03/25 12:47:32;;;;;;;5.95;1.67;;;12.30;99.90;;;;;;5004056;28;20045;-74
2024/03/25 12:49:58;;;;;;;4.03;1.75;;;12.20;99.90;;;;;;5003543;28;20068;-74